<?xml version='1.0' encoding='UTF-8'?><gpx version="1.1" creator="JPX - https://github.com/jenetics/jpx" xmlns="http://www.topografix.com/GPX/1/1"><trk><trkseg><trkpt lat="43.63968947633565" lon="13.249880229048195"><ele>107.66666666666667</ele><time>2026-04-10T16:53:17.001Z</time></trkpt><trkpt lat="43.639750244766375" lon="13.249785016905692"><ele>106.33333333333334</ele><time>2026-04-10T16:53:19.001Z</time></trkpt><trkpt lat="43.63984732629542" lon="13.249682378846844"><ele>105.0</ele><time>2026-04-10T16:53:21.001Z</time></trkpt><trkpt lat="43.63990010622515" lon="13.249633260162001"><ele>103.66666666666666</ele><time>2026-04-10T16:53:22.001Z</time></trkpt><trkpt lat="43.63995609336519" lon="13.249585180113373"><ele>102.33333333333333</ele><time>2026-04-10T16:53:23.001Z</time></trkpt><trkpt lat="43.64001292331301" lon="13.24952547952008"><ele>101.0</ele><time>2026-04-10T16:53:24.001Z</time></trkpt><trkpt lat="43.64011454954133" lon="13.249434936747866"><ele>100.99999999999999</ele><time>2026-04-10T16:53:26.001Z</time></trkpt><trkpt lat="43.64018915884089" lon="13.249371305930195"><ele>101.0</ele><time>2026-04-10T16:53:28.001Z</time></trkpt><trkpt lat="43.64024654131168" lon="13.2493081199118"><ele>101.0</ele><time>2026-04-10T16:53:30.001Z</time></trkpt><trkpt lat="43.6402962314123" lon="13.24923924128485"><ele>101.0</ele><time>2026-04-10T16:53:32.001Z</time></trkpt><trkpt lat="43.64032338574094" lon="13.249155398678257"><ele>100.99999999999999</ele><time>2026-04-10T16:53:34.001Z</time></trkpt><trkpt lat="43.6402597428389" lon="13.249274116053536"><ele>101.0</ele><time>2026-04-10T16:53:55.999Z</time></trkpt><trkpt lat="43.64019979752454" lon="13.249350550661253"><ele>101.0</ele><time>2026-04-10T16:53:56.999Z</time></trkpt><trkpt lat="43.64011704565206" lon="13.249427487649983"><ele>101.0</ele><time>2026-04-10T16:53:57.999Z</time></trkpt><trkpt lat="43.64003101615903" lon="13.249507321410999"><ele>101.0</ele><time>2026-04-10T16:53:58.999Z</time></trkpt><trkpt lat="43.63991955930577" lon="13.249608471085644"><ele>101.0</ele><time>2026-04-10T16:54:00Z</time></trkpt><trkpt lat="43.63982702392113" lon="13.249686942645685"><ele>101.0</ele><time>2026-04-10T16:54:01Z</time></trkpt><trkpt lat="43.639763311211865" lon="13.249748553405615"><ele>102.6</ele><time>2026-04-10T16:54:02Z</time></trkpt><trkpt lat="43.639703216606804" lon="13.249835453137196"><ele>104.19999999999999</ele><time>2026-04-10T16:54:03Z</time></trkpt><trkpt lat="43.63967154981962" lon="13.24993259773577"><ele>105.80000000000001</ele><time>2026-04-10T16:54:04Z</time></trkpt><trkpt lat="43.63966090383875" lon="13.250056145007605"><ele>107.4</ele><time>2026-04-10T16:54:06Z</time></trkpt><trkpt lat="43.63967658639974" lon="13.250155359377729"><ele>109.0</ele><time>2026-04-10T16:54:10Z</time></trkpt><trkpt lat="43.63954517795003" lon="13.250121872065792"><ele>109.00000000000001</ele><time>2026-04-10T16:54:14Z</time></trkpt><trkpt lat="43.6394823734443" lon="13.250106931782739"><ele>109.0</ele><time>2026-04-10T16:54:15Z</time></trkpt><trkpt lat="43.6394010628281" lon="13.250100741697016"><ele>109.0</ele><time>2026-04-10T16:54:16Z</time></trkpt><trkpt lat="43.63932927212511" lon="13.250085268481822"><ele>109.0</ele><time>2026-04-10T16:54:17Z</time></trkpt><trkpt lat="43.63921630200446" lon="13.250053834304582"><ele>109.00000000000001</ele><time>2026-04-10T16:54:19Z</time></trkpt><trkpt lat="43.63912441411268" lon="13.250048284783288"><ele>109.0</ele><time>2026-04-10T16:54:20Z</time></trkpt><trkpt lat="43.63901130251634" lon="13.25002396368172"><ele>109.00000000000001</ele><time>2026-04-10T16:54:21Z</time></trkpt><trkpt lat="43.63890195675871" lon="13.250055818319492"><ele>109.0</ele><time>2026-04-10T16:54:22Z</time></trkpt><trkpt lat="43.63881744321012" lon="13.250067689750447"><ele>109.0</ele><time>2026-04-10T16:54:23Z</time></trkpt><trkpt lat="43.63875053212633" lon="13.250064751401919"><ele>109.0</ele><time>2026-04-10T16:54:24Z</time></trkpt><trkpt lat="43.638687915638606" lon="13.250102711776362"><ele>109.00000000000001</ele><time>2026-04-10T16:54:25Z</time></trkpt><trkpt lat="43.63859840276107" lon="13.250117757539995"><ele>109.0</ele><time>2026-04-10T16:54:27Z</time></trkpt><trkpt lat="43.63853565418325" lon="13.250149706796345"><ele>109.00000000000001</ele><time>2026-04-10T16:54:29Z</time></trkpt><trkpt lat="43.63844863002239" lon="13.250161409523452"><ele>109.0</ele><time>2026-04-10T16:54:32Z</time></trkpt><trkpt lat="43.63838660583873" lon="13.250199374540337"><ele>109.0</ele><time>2026-04-10T16:54:34Z</time></trkpt><trkpt lat="43.63830662633751" lon="13.25023412934651"><ele>109.0</ele><time>2026-04-10T16:54:37Z</time></trkpt><trkpt lat="43.63823476120617" lon="13.25026703761592"><ele>109.00000000000001</ele><time>2026-04-10T16:54:40Z</time></trkpt><trkpt lat="43.63833564251662" lon="13.250294100417626"><ele>109.0</ele><time>2026-04-10T16:54:47Z</time></trkpt><trkpt lat="43.63841558987806" lon="13.250237918425988"><ele>109.0</ele><time>2026-04-10T16:54:48Z</time></trkpt><trkpt lat="43.6385186670567" lon="13.25018968873207"><ele>109.0</ele><time>2026-04-10T16:54:49Z</time></trkpt><trkpt lat="43.63864141636215" lon="13.25015107722579"><ele>109.0</ele><time>2026-04-10T16:54:50Z</time></trkpt><trkpt lat="43.63873809027242" lon="13.250121497457052"><ele>109.0</ele><time>2026-04-10T16:54:51.001Z</time></trkpt><trkpt lat="43.63883549542856" lon="13.250088107794785"><ele>109.0</ele><time>2026-04-10T16:54:52.001Z</time></trkpt><trkpt lat="43.63896326053745" lon="13.250064178092329"><ele>109.66666666666667</ele><time>2026-04-10T16:54:53.001Z</time></trkpt><trkpt lat="43.63912010858287" lon="13.250056576962399"><ele>110.33333333333334</ele><time>2026-04-10T16:54:54.001Z</time></trkpt><trkpt lat="43.63927949706465" lon="13.250106060180949"><ele>111.0</ele><time>2026-04-10T16:54:55.001Z</time></trkpt><trkpt lat="43.63942199080163" lon="13.250138413541729"><ele>110.33333333333334</ele><time>2026-04-10T16:54:56.001Z</time></trkpt><trkpt lat="43.63957498365868" lon="13.25015891080025"><ele>109.66666666666667</ele><time>2026-04-10T16:54:57.001Z</time></trkpt><trkpt lat="43.63975015614434" lon="13.25023059561444"><ele>109.0</ele><time>2026-04-10T16:54:58.001Z</time></trkpt><trkpt lat="43.639914026015454" lon="13.25029196520705"><ele>109.0</ele><time>2026-04-10T16:54:59.001Z</time></trkpt><trkpt lat="43.64006958888937" lon="13.250357846116318"><ele>109.0</ele><time>2026-04-10T16:55:00.001Z</time></trkpt><trkpt lat="43.64024512089876" lon="13.250432625293616"><ele>109.0</ele><time>2026-04-10T16:55:01.001Z</time></trkpt><trkpt lat="43.64042983971091" lon="13.250514492187202"><ele>108.33333333333334</ele><time>2026-04-10T16:55:02.001Z</time></trkpt><trkpt lat="43.64058226455158" lon="13.250587999691803"><ele>107.66666666666666</ele><time>2026-04-10T16:55:03.001Z</time></trkpt><trkpt lat="43.64072675858782" lon="13.250655523078704"><ele>107.0</ele><time>2026-04-10T16:55:04.001Z</time></trkpt><trkpt lat="43.64089720091172" lon="13.250730352074557"><ele>109.0</ele><time>2026-04-10T16:55:05.001Z</time></trkpt><trkpt lat="43.641086317570604" lon="13.250822268819995"><ele>111.0</ele><time>2026-04-10T16:55:06.001Z</time></trkpt><trkpt lat="43.641250998220755" lon="13.25089917868015"><ele>113.0</ele><time>2026-04-10T16:55:07.001Z</time></trkpt><trkpt lat="43.641397172697765" lon="13.250965944892268"><ele>113.0</ele><time>2026-04-10T16:55:08.001Z</time></trkpt><trkpt lat="43.64154522592537" lon="13.251043056813273"><ele>113.0</ele><time>2026-04-10T16:55:09.001Z</time></trkpt><trkpt lat="43.641696203995096" lon="13.251144566039292"><ele>113.0</ele><time>2026-04-10T16:55:10.001Z</time></trkpt><trkpt lat="43.64183910575244" lon="13.25122678994871"><ele>113.0</ele><time>2026-04-10T16:55:11.001Z</time></trkpt><trkpt lat="43.64195378339371" lon="13.251301981315478"><ele>113.0</ele><time>2026-04-10T16:55:12.001Z</time></trkpt><trkpt lat="43.642065118393994" lon="13.251391441664595"><ele>113.0</ele><time>2026-04-10T16:55:13.001Z</time></trkpt><trkpt lat="43.642173263690914" lon="13.251493502086856"><ele>113.0</ele><time>2026-04-10T16:55:14.001Z</time></trkpt><trkpt lat="43.64229560373995" lon="13.251611142721611"><ele>114.33333333333333</ele><time>2026-04-10T16:55:15.001Z</time></trkpt><trkpt lat="43.64244182559721" lon="13.251754552790524"><ele>115.66666666666666</ele><time>2026-04-10T16:55:16.001Z</time></trkpt><trkpt lat="43.64260800036483" lon="13.25191723814111"><ele>117.0</ele><time>2026-04-10T16:55:17.001Z</time></trkpt><trkpt lat="43.642777442130445" lon="13.252047940254931"><ele>117.66666666666666</ele><time>2026-04-10T16:55:18.001Z</time></trkpt><trkpt lat="43.64291219044803" lon="13.252180928142579"><ele>118.33333333333333</ele><time>2026-04-10T16:55:19.001Z</time></trkpt><trkpt lat="43.64305640360021" lon="13.2523065516303"><ele>119.0</ele><time>2026-04-10T16:55:20.001Z</time></trkpt><trkpt lat="43.643198981923405" lon="13.252462628043084"><ele>119.0</ele><time>2026-04-10T16:55:21.001Z</time></trkpt><trkpt lat="43.64333964999509" lon="13.252595788424607"><ele>119.0</ele><time>2026-04-10T16:55:22.001Z</time></trkpt><trkpt lat="43.643484482632694" lon="13.2527094346152"><ele>119.0</ele><time>2026-04-10T16:55:23.001Z</time></trkpt><trkpt lat="43.6436100042966" lon="13.25282987638312"><ele>118.75</ele><time>2026-04-10T16:55:24.001Z</time></trkpt><trkpt lat="43.64375027194604" lon="13.25294466296274"><ele>118.5</ele><time>2026-04-10T16:55:25.001Z</time></trkpt><trkpt lat="43.64387965650735" lon="13.253066103675685"><ele>118.25</ele><time>2026-04-10T16:55:26.001Z</time></trkpt><trkpt lat="43.64396305693761" lon="13.25318354434334"><ele>118.0</ele><time>2026-04-10T16:55:27.001Z</time></trkpt><trkpt lat="43.644034575851016" lon="13.253294769770529"><ele>120.0</ele><time>2026-04-10T16:55:28.001Z</time></trkpt><trkpt lat="43.644125533675556" lon="13.253436275759508"><ele>122.0</ele><time>2026-04-10T16:55:29.001Z</time></trkpt><trkpt lat="43.644219982010064" lon="13.253564339975393"><ele>124.0</ele><time>2026-04-10T16:55:30.001Z</time></trkpt><trkpt lat="43.64433036928754" lon="13.253673386394672"><ele>126.0</ele><time>2026-04-10T16:55:31.001Z</time></trkpt><trkpt lat="43.64443215441768" lon="13.253792890285357"><ele>126.25</ele><time>2026-04-10T16:55:32.001Z</time></trkpt><trkpt lat="43.64455742255217" lon="13.25387036920565"><ele>126.5</ele><time>2026-04-10T16:55:33.001Z</time></trkpt><trkpt lat="43.64468677192296" lon="13.253941139508271"><ele>126.75</ele><time>2026-04-10T16:55:34.001Z</time></trkpt><trkpt lat="43.64482024582656" lon="13.253973006642072"><ele>127.0</ele><time>2026-04-10T16:55:35.001Z</time></trkpt><trkpt lat="43.64498984914948" lon="13.253999644644276"><ele>127.75</ele><time>2026-04-10T16:55:36.001Z</time></trkpt><trkpt lat="43.64514738257763" lon="13.254037044992307"><ele>128.5</ele><time>2026-04-10T16:55:37.001Z</time></trkpt><trkpt lat="43.645271659050536" lon="13.254043054507378"><ele>129.25</ele><time>2026-04-10T16:55:38.001Z</time></trkpt><trkpt lat="43.645378680115" lon="13.254064468696015"><ele>130.0</ele><time>2026-04-10T16:55:39.001Z</time></trkpt><trkpt lat="43.64550034854722" lon="13.254095351537984"><ele>130.0</ele><time>2026-04-10T16:55:40.001Z</time></trkpt><trkpt lat="43.64565191938819" lon="13.25413338742373"><ele>130.0</ele><time>2026-04-10T16:55:41.001Z</time></trkpt><trkpt lat="43.6458295671053" lon="13.254197636693545"><ele>130.0</ele><time>2026-04-10T16:55:42.001Z</time></trkpt><trkpt lat="43.645997308550115" lon="13.254240753348842"><ele>129.25</ele><time>2026-04-10T16:55:42.999Z</time></trkpt><trkpt lat="43.64614376304658" lon="13.254291140837232"><ele>128.5</ele><time>2026-04-10T16:55:43.999Z</time></trkpt><trkpt lat="43.64627305911423" lon="13.254346271604916"><ele>127.75</ele><time>2026-04-10T16:55:44.999Z</time></trkpt><trkpt lat="43.64638626846928" lon="13.254412253454992"><ele>127.0</ele><time>2026-04-10T16:55:45.999Z</time></trkpt><trkpt lat="43.64649850818856" lon="13.2544525808468"><ele>127.00000000000001</ele><time>2026-04-10T16:55:46.999Z</time></trkpt><trkpt lat="43.64659669539491" lon="13.254498174242935"><ele>127.0</ele><time>2026-04-10T16:55:47.999Z</time></trkpt><trkpt lat="43.64667888120538" lon="13.254545261248847"><ele>127.0</ele><time>2026-04-10T16:55:48.999Z</time></trkpt><trkpt lat="43.64675537172009" lon="13.254579491531613"><ele>127.0</ele><time>2026-04-10T16:55:49.999Z</time></trkpt><trkpt lat="43.646821846648365" lon="13.254619051726255"><ele>127.00000000000001</ele><time>2026-04-10T16:55:50.999Z</time></trkpt><trkpt lat="43.646890040762536" lon="13.254669556702478"><ele>127.0</ele><time>2026-04-10T16:55:52.999Z</time></trkpt><trkpt lat="43.64680696949958" lon="13.254776904017367"><ele>127.25</ele><time>2026-04-10T16:55:55.999Z</time></trkpt><trkpt lat="43.646726852295906" lon="13.254873167625949"><ele>127.5</ele><time>2026-04-10T16:55:56.999Z</time></trkpt><trkpt lat="43.64664012429037" lon="13.255000156466512"><ele>127.75</ele><time>2026-04-10T16:55:57.999Z</time></trkpt><trkpt lat="43.64654768342289" lon="13.255165610299711"><ele>128.0</ele><time>2026-04-10T16:55:58.999Z</time></trkpt><trkpt lat="43.64646168352179" lon="13.255366448072335"><ele>128.0</ele><time>2026-04-10T16:55:59.999Z</time></trkpt><trkpt lat="43.64641842671099" lon="13.255607733585054"><ele>128.0</ele><time>2026-04-10T16:56:00.999Z</time></trkpt><trkpt lat="43.64639668632518" lon="13.255842693510875"><ele>128.0</ele><time>2026-04-10T16:56:01.999Z</time></trkpt><trkpt lat="43.64636450411848" lon="13.256067639302094"><ele>127.0</ele><time>2026-04-10T16:56:03Z</time></trkpt><trkpt lat="43.64634212019288" lon="13.256273746035903"><ele>126.0</ele><time>2026-04-10T16:56:04Z</time></trkpt><trkpt lat="43.646321721767166" lon="13.25646768759976"><ele>125.0</ele><time>2026-04-10T16:56:05Z</time></trkpt><trkpt lat="43.6463010533011" lon="13.256682242902466"><ele>124.0</ele><time>2026-04-10T16:56:06Z</time></trkpt><trkpt lat="43.64630201600556" lon="13.256945602381615"><ele>123.33333333333334</ele><time>2026-04-10T16:56:07Z</time></trkpt><trkpt lat="43.646319295152715" lon="13.257234672654164"><ele>122.66666666666666</ele><time>2026-04-10T16:56:08Z</time></trkpt><trkpt lat="43.64635438129158" lon="13.257499191870242"><ele>122.0</ele><time>2026-04-10T16:56:09Z</time></trkpt><trkpt lat="43.64638328739317" lon="13.257765765253044"><ele>120.33333333333333</ele><time>2026-04-10T16:56:10Z</time></trkpt><trkpt lat="43.64640077213501" lon="13.258056914793428"><ele>118.66666666666666</ele><time>2026-04-10T16:56:11Z</time></trkpt><trkpt lat="43.64639012721763" lon="13.258360975496242"><ele>117.0</ele><time>2026-04-10T16:56:12Z</time></trkpt><trkpt lat="43.64638297609864" lon="13.258689009570439"><ele>115.0</ele><time>2026-04-10T16:56:13Z</time></trkpt><trkpt lat="43.64637400119211" lon="13.259031391481145"><ele>113.0</ele><time>2026-04-10T16:56:14Z</time></trkpt><trkpt lat="43.64636367696248" lon="13.259404025112328"><ele>113.0</ele><time>2026-04-10T16:56:15Z</time></trkpt><trkpt lat="43.646351772959676" lon="13.259778445269355"><ele>113.0</ele><time>2026-04-10T16:56:16Z</time></trkpt><trkpt lat="43.64633479524085" lon="13.260158521828801"><ele>111.5</ele><time>2026-04-10T16:56:17Z</time></trkpt><trkpt lat="43.64631343992765" lon="13.260537886555907"><ele>110.0</ele><time>2026-04-10T16:56:18Z</time></trkpt><trkpt lat="43.64628661600128" lon="13.260899466489903"><ele>108.5</ele><time>2026-04-10T16:56:19Z</time></trkpt><trkpt lat="43.64625730303098" lon="13.26125038643543"><ele>107.0</ele><time>2026-04-10T16:56:20Z</time></trkpt><trkpt lat="43.64623241015292" lon="13.261597285756316"><ele>105.0</ele><time>2026-04-10T16:56:21Z</time></trkpt><trkpt lat="43.646231372478944" lon="13.261921036167223"><ele>103.0</ele><time>2026-04-10T16:56:22Z</time></trkpt><trkpt lat="43.64622595648846" lon="13.26223079787027"><ele>103.66666666666667</ele><time>2026-04-10T16:56:23Z</time></trkpt><trkpt lat="43.646227589462754" lon="13.262526691254006"><ele>104.33333333333334</ele><time>2026-04-10T16:56:24Z</time></trkpt><trkpt lat="43.64622558598726" lon="13.262804736341902"><ele>105.0</ele><time>2026-04-10T16:56:25Z</time></trkpt><trkpt lat="43.64622232985412" lon="13.263054982600615"><ele>106.66666666666666</ele><time>2026-04-10T16:56:26Z</time></trkpt><trkpt lat="43.64622756577256" lon="13.263298675837149"><ele>108.33333333333333</ele><time>2026-04-10T16:56:27Z</time></trkpt><trkpt lat="43.646252847888604" lon="13.263541466701446"><ele>110.0</ele><time>2026-04-10T16:56:28Z</time></trkpt><trkpt lat="43.646299560273484" lon="13.263786647637998"><ele>111.25</ele><time>2026-04-10T16:56:29Z</time></trkpt><trkpt lat="43.64633285791263" lon="13.264009458697615"><ele>112.5</ele><time>2026-04-10T16:56:30Z</time></trkpt><trkpt lat="43.646371884815544" lon="13.264198359420078"><ele>113.75</ele><time>2026-04-10T16:56:31Z</time></trkpt><trkpt lat="43.64640441286764" lon="13.264355469502767"><ele>115.0</ele><time>2026-04-10T16:56:32Z</time></trkpt><trkpt lat="43.6464465732491" lon="13.264483641197494"><ele>115.0</ele><time>2026-04-10T16:56:33Z</time></trkpt><trkpt lat="43.6464664801784" lon="13.264618264632272"><ele>115.0</ele><time>2026-04-10T16:56:34Z</time></trkpt><trkpt lat="43.64649131127772" lon="13.264754003044027"><ele>115.0</ele><time>2026-04-10T16:56:35Z</time></trkpt><trkpt lat="43.64651946491164" lon="13.2648819832322"><ele>115.0</ele><time>2026-04-10T16:56:36Z</time></trkpt><trkpt lat="43.64654673575221" lon="13.265004798792386"><ele>115.0</ele><time>2026-04-10T16:56:37Z</time></trkpt><trkpt lat="43.64657223008999" lon="13.26512929762238"><ele>115.25</ele><time>2026-04-10T16:56:38Z</time></trkpt><trkpt lat="43.6465746294265" lon="13.265245130594481"><ele>115.5</ele><time>2026-04-10T16:56:39Z</time></trkpt><trkpt lat="43.646593581504774" lon="13.265363926177349"><ele>115.75</ele><time>2026-04-10T16:56:40Z</time></trkpt><trkpt lat="43.64676283112364" lon="13.265496825412441"><ele>116.0</ele><time>2026-04-10T16:56:41Z</time></trkpt><trkpt lat="43.64688854310705" lon="13.265687943893884"><ele>114.75</ele><time>2026-04-10T16:56:42Z</time></trkpt><trkpt lat="43.64697450052928" lon="13.265882761476522"><ele>113.5</ele><time>2026-04-10T16:56:43Z</time></trkpt><trkpt lat="43.647041483846344" lon="13.266055688299026"><ele>112.25</ele><time>2026-04-10T16:56:44Z</time></trkpt><trkpt lat="43.647098354660464" lon="13.266232038829571"><ele>111.0</ele><time>2026-04-10T16:56:45.001Z</time></trkpt><trkpt lat="43.64713962105557" lon="13.266442428472008"><ele>111.75</ele><time>2026-04-10T16:56:46.001Z</time></trkpt><trkpt lat="43.64716770542975" lon="13.266661266235996"><ele>112.5</ele><time>2026-04-10T16:56:47.001Z</time></trkpt><trkpt lat="43.647209010152444" lon="13.266861483179454"><ele>113.25</ele><time>2026-04-10T16:56:48.001Z</time></trkpt><trkpt lat="43.647271388515925" lon="13.267029128363191"><ele>114.0</ele><time>2026-04-10T16:56:49.001Z</time></trkpt><trkpt lat="43.64732431846771" lon="13.267176573625813"><ele>113.80000000000001</ele><time>2026-04-10T16:56:50.001Z</time></trkpt><trkpt lat="43.647379932801854" lon="13.267306845855355"><ele>113.60000000000001</ele><time>2026-04-10T16:56:51.001Z</time></trkpt><trkpt lat="43.647439887054986" lon="13.26743553891163"><ele>113.4</ele><time>2026-04-10T16:56:52.001Z</time></trkpt><trkpt lat="43.64751075183656" lon="13.267556939800865"><ele>113.2</ele><time>2026-04-10T16:56:53.001Z</time></trkpt><trkpt lat="43.647586894891624" lon="13.267669806025165"><ele>113.0</ele><time>2026-04-10T16:56:54.001Z</time></trkpt><trkpt lat="43.64766787342229" lon="13.267779091116587"><ele>113.0</ele><time>2026-04-10T16:56:55.001Z</time></trkpt><trkpt lat="43.64776849987812" lon="13.26785538543298"><ele>113.0</ele><time>2026-04-10T16:56:56.001Z</time></trkpt><trkpt lat="43.64787362814255" lon="13.267952560525186"><ele>113.0</ele><time>2026-04-10T16:56:57.001Z</time></trkpt><trkpt lat="43.64806245468491" lon="13.26799115172583"><ele>113.0</ele><time>2026-04-10T16:56:58.001Z</time></trkpt><trkpt lat="43.6482869906209" lon="13.268043471277753"><ele>105.5</ele><time>2026-04-10T16:56:59.001Z</time></trkpt><trkpt lat="43.64854809877452" lon="13.268141338823417"><ele>98.0</ele><time>2026-04-10T16:57:00.001Z</time></trkpt><trkpt lat="43.64878649845511" lon="13.268246741749172"><ele>96.33333333333333</ele><time>2026-04-10T16:57:01.001Z</time></trkpt><trkpt lat="43.648990376546884" lon="13.268351538355358"><ele>94.66666666666666</ele><time>2026-04-10T16:57:02.001Z</time></trkpt><trkpt lat="43.6491775635638" lon="13.268470671105927"><ele>93.0</ele><time>2026-04-10T16:57:03.001Z</time></trkpt><trkpt lat="43.64934665664205" lon="13.268591241635347"><ele>93.33333333333333</ele><time>2026-04-10T16:57:04.001Z</time></trkpt><trkpt lat="43.64951645965975" lon="13.268712025664348"><ele>93.66666666666666</ele><time>2026-04-10T16:57:05.001Z</time></trkpt><trkpt lat="43.64968540009656" lon="13.26884471571373"><ele>94.0</ele><time>2026-04-10T16:57:06.001Z</time></trkpt><trkpt lat="43.64984215418073" lon="13.26899200175905"><ele>93.33333333333333</ele><time>2026-04-10T16:57:07.001Z</time></trkpt><trkpt lat="43.64995991345775" lon="13.269160394922675"><ele>92.66666666666667</ele><time>2026-04-10T16:57:08.001Z</time></trkpt><trkpt lat="43.65007033707493" lon="13.2693387531862"><ele>92.0</ele><time>2026-04-10T16:57:09.001Z</time></trkpt><trkpt lat="43.65017866031222" lon="13.269544929383038"><ele>91.0</ele><time>2026-04-10T16:57:10.001Z</time></trkpt><trkpt lat="43.65029404138148" lon="13.26977831512249"><ele>90.0</ele><time>2026-04-10T16:57:11.001Z</time></trkpt><trkpt lat="43.650398585041174" lon="13.269991535447094"><ele>89.0</ele><time>2026-04-10T16:57:12.001Z</time></trkpt><trkpt lat="43.65049624093262" lon="13.270181993447203"><ele>89.0</ele><time>2026-04-10T16:57:13.001Z</time></trkpt><trkpt lat="43.65061693806668" lon="13.27037074231798"><ele>89.0</ele><time>2026-04-10T16:57:14.001Z</time></trkpt><trkpt lat="43.650762711502196" lon="13.270566750563786"><ele>89.0</ele><time>2026-04-10T16:57:15.001Z</time></trkpt><trkpt lat="43.6508976161753" lon="13.27077935797466"><ele>88.0</ele><time>2026-04-10T16:57:16.001Z</time></trkpt><trkpt lat="43.65097961637393" lon="13.271043608482373"><ele>87.0</ele><time>2026-04-10T16:57:17.001Z</time></trkpt><trkpt lat="43.6510621493483" lon="13.271341478097044"><ele>86.0</ele><time>2026-04-10T16:57:18.001Z</time></trkpt><trkpt lat="43.65113425251528" lon="13.271663430164825"><ele>83.5</ele><time>2026-04-10T16:57:19.001Z</time></trkpt><trkpt lat="43.65119516901952" lon="13.271995256244226"><ele>81.0</ele><time>2026-04-10T16:57:20.001Z</time></trkpt><trkpt lat="43.651254166138656" lon="13.272326772849263"><ele>80.0</ele><time>2026-04-10T16:57:21.001Z</time></trkpt><trkpt lat="43.65131200731364" lon="13.272651793922863"><ele>79.0</ele><time>2026-04-10T16:57:22.001Z</time></trkpt><trkpt lat="43.651374836399455" lon="13.27299533682492"><ele>79.5</ele><time>2026-04-10T16:57:23.001Z</time></trkpt><trkpt lat="43.651464341937974" lon="13.27335210342254"><ele>80.0</ele><time>2026-04-10T16:57:24.001Z</time></trkpt><trkpt lat="43.651591008052854" lon="13.273712303160515"><ele>79.5</ele><time>2026-04-10T16:57:25.001Z</time></trkpt><trkpt lat="43.65171695596875" lon="13.274037778579478"><ele>79.0</ele><time>2026-04-10T16:57:26.001Z</time></trkpt><trkpt lat="43.65183305398907" lon="13.274326285186145"><ele>79.0</ele><time>2026-04-10T16:57:27.001Z</time></trkpt><trkpt lat="43.65193238195192" lon="13.274579182496131"><ele>79.0</ele><time>2026-04-10T16:57:28.001Z</time></trkpt><trkpt lat="43.65205048262283" lon="13.274788010840622"><ele>79.0</ele><time>2026-04-10T16:57:29.001Z</time></trkpt><trkpt lat="43.65213130912582" lon="13.275010835461014"><ele>79.33333333333333</ele><time>2026-04-10T16:57:30.001Z</time></trkpt><trkpt lat="43.65220484614922" lon="13.275237952839573"><ele>79.66666666666667</ele><time>2026-04-10T16:57:31.001Z</time></trkpt><trkpt lat="43.652281711058144" lon="13.275507728620026"><ele>80.0</ele><time>2026-04-10T16:57:32.001Z</time></trkpt><trkpt lat="43.652341740218105" lon="13.275830099343333"><ele>80.0</ele><time>2026-04-10T16:57:33.001Z</time></trkpt><trkpt lat="43.65244074844518" lon="13.276142409426592"><ele>80.0</ele><time>2026-04-10T16:57:34.001Z</time></trkpt><trkpt lat="43.65253589379305" lon="13.27642059471518"><ele>77.33333333333334</ele><time>2026-04-10T16:57:35.001Z</time></trkpt><trkpt lat="43.65262486434543" lon="13.276694855848875"><ele>74.66666666666667</ele><time>2026-04-10T16:57:36.001Z</time></trkpt><trkpt lat="43.65269945078247" lon="13.276984073855541"><ele>72.0</ele><time>2026-04-10T16:57:37.001Z</time></trkpt><trkpt lat="43.65276190551839" lon="13.277293973961383"><ele>72.33333333333333</ele><time>2026-04-10T16:57:38.001Z</time></trkpt><trkpt lat="43.65281377256296" lon="13.277620564835855"><ele>72.66666666666666</ele><time>2026-04-10T16:57:39.001Z</time></trkpt><trkpt lat="43.6528377263321" lon="13.277884349854617"><ele>73.0</ele><time>2026-04-10T16:57:40.001Z</time></trkpt><trkpt lat="43.65284150220521" lon="13.278087031282507"><ele>71.75</ele><time>2026-04-10T16:57:41.002Z</time></trkpt><trkpt lat="43.652806474790104" lon="13.278265557235153"><ele>70.5</ele><time>2026-04-10T16:57:42.002Z</time></trkpt><trkpt lat="43.652729928929645" lon="13.278432701230342"><ele>69.25</ele><time>2026-04-10T16:57:43.002Z</time></trkpt><trkpt lat="43.65264997603557" lon="13.2786181652773"><ele>68.0</ele><time>2026-04-10T16:57:44.002Z</time></trkpt><trkpt lat="43.65262422551159" lon="13.278788203351688"><ele>66.75</ele><time>2026-04-10T16:57:45.002Z</time></trkpt><trkpt lat="43.652613620553154" lon="13.27894552056332"><ele>65.5</ele><time>2026-04-10T16:57:46.002Z</time></trkpt><trkpt lat="43.65267111595912" lon="13.279112204558006"><ele>64.25</ele><time>2026-04-10T16:57:47.002Z</time></trkpt><trkpt lat="43.65279562459463" lon="13.279257136844908"><ele>63.0</ele><time>2026-04-10T16:57:48.002Z</time></trkpt><trkpt lat="43.65291134935437" lon="13.279446740251839"><ele>63.0</ele><time>2026-04-10T16:57:48.999Z</time></trkpt><trkpt lat="43.652993335758154" lon="13.279641849028174"><ele>63.0</ele><time>2026-04-10T16:57:49.999Z</time></trkpt><trkpt lat="43.65304865829624" lon="13.279875851346679"><ele>63.0</ele><time>2026-04-10T16:57:50.999Z</time></trkpt><trkpt lat="43.65310415480345" lon="13.280137663222234"><ele>59.5</ele><time>2026-04-10T16:57:51.999Z</time></trkpt><trkpt lat="43.65316461825688" lon="13.28042990322189"><ele>56.0</ele><time>2026-04-10T16:57:52.999Z</time></trkpt><trkpt lat="43.65322978072516" lon="13.280737325831009"><ele>54.333333333333336</ele><time>2026-04-10T16:57:53.999Z</time></trkpt><trkpt lat="43.65329174827812" lon="13.281029944869548"><ele>52.66666666666667</ele><time>2026-04-10T16:57:55Z</time></trkpt><trkpt lat="43.65334510202287" lon="13.281283291836873"><ele>51.0</ele><time>2026-04-10T16:57:56Z</time></trkpt><trkpt lat="43.653395276915404" lon="13.281521543926468"><ele>47.5</ele><time>2026-04-10T16:57:57Z</time></trkpt><trkpt lat="43.653464003434614" lon="13.281847794112668"><ele>44.0</ele><time>2026-04-10T16:57:58Z</time></trkpt><trkpt lat="43.653535203363845" lon="13.282185682620051"><ele>39.5</ele><time>2026-04-10T16:57:59Z</time></trkpt><trkpt lat="43.65360420914395" lon="13.282513530191943"><ele>35.0</ele><time>2026-04-10T16:58:00Z</time></trkpt><trkpt lat="43.65366747602849" lon="13.282816862353728"><ele>32.666666666666664</ele><time>2026-04-10T16:58:01Z</time></trkpt><trkpt lat="43.653728949531" lon="13.283111596138529"><ele>30.333333333333336</ele><time>2026-04-10T16:58:02Z</time></trkpt><trkpt lat="43.65378551851965" lon="13.28338281542992"><ele>28.0</ele><time>2026-04-10T16:58:03Z</time></trkpt><trkpt lat="43.653838654474306" lon="13.283647959440076"><ele>28.0</ele><time>2026-04-10T16:58:04Z</time></trkpt><trkpt lat="43.65388839827017" lon="13.28389681076285"><ele>28.0</ele><time>2026-04-10T16:58:05Z</time></trkpt><trkpt lat="43.65393409603141" lon="13.284125421038006"><ele>28.0</ele><time>2026-04-10T16:58:06Z</time></trkpt><trkpt lat="43.65397453724416" lon="13.284315476699854"><ele>27.75</ele><time>2026-04-10T16:58:07Z</time></trkpt><trkpt lat="43.65401263183452" lon="13.284461441381275"><ele>27.5</ele><time>2026-04-10T16:58:08Z</time></trkpt><trkpt lat="43.654077754257216" lon="13.28460132051326"><ele>27.25</ele><time>2026-04-10T16:58:09Z</time></trkpt><trkpt lat="43.654184494405406" lon="13.284691052807819"><ele>27.0</ele><time>2026-04-10T16:58:10Z</time></trkpt><trkpt lat="43.65434956710161" lon="13.284691818273977"><ele>26.333333333333336</ele><time>2026-04-10T16:58:11Z</time></trkpt><trkpt lat="43.65454834656396" lon="13.284696927917523"><ele>25.666666666666668</ele><time>2026-04-10T16:58:12Z</time></trkpt><trkpt lat="43.654782276761566" lon="13.284687944652095"><ele>25.0</ele><time>2026-04-10T16:58:13Z</time></trkpt><trkpt lat="43.65504089521258" lon="13.284687558173038"><ele>25.5</ele><time>2026-04-10T16:58:14Z</time></trkpt><trkpt lat="43.65535753035784" lon="13.284716564902286"><ele>26.0</ele><time>2026-04-10T16:58:15Z</time></trkpt><trkpt lat="43.655693548512566" lon="13.284693366281664"><ele>26.0</ele><time>2026-04-10T16:58:16Z</time></trkpt><trkpt lat="43.65604217551091" lon="13.284688523966313"><ele>26.0</ele><time>2026-04-10T16:58:17Z</time></trkpt><trkpt lat="43.656394169683" lon="13.284682492180249"><ele>27.5</ele><time>2026-04-10T16:58:18Z</time></trkpt><trkpt lat="43.65668883430778" lon="13.284675563018435"><ele>29.0</ele><time>2026-04-10T16:58:19Z</time></trkpt><trkpt lat="43.65694001008785" lon="13.28466941852807"><ele>32.0</ele><time>2026-04-10T16:58:20Z</time></trkpt><trkpt lat="43.65716587019319" lon="13.284665435457477"><ele>35.0</ele><time>2026-04-10T16:58:21Z</time></trkpt><trkpt lat="43.657339060920826" lon="13.284664899392071"><ele>38.0</ele><time>2026-04-10T16:58:22Z</time></trkpt><trkpt lat="43.65746152097136" lon="13.284665986807722"><ele>38.0</ele><time>2026-04-10T16:58:23Z</time></trkpt><trkpt lat="43.65756065659447" lon="13.284657472043635"><ele>38.0</ele><time>2026-04-10T16:58:24Z</time></trkpt><trkpt lat="43.6574809545655" lon="13.284657193678523"><ele>38.0</ele><time>2026-04-10T16:58:29Z</time></trkpt><trkpt lat="43.657345255275715" lon="13.28463158630267"><ele>38.0</ele><time>2026-04-10T16:58:31Z</time></trkpt><trkpt lat="43.6571808424398" lon="13.284637690203201"><ele>38.0</ele><time>2026-04-10T16:58:32Z</time></trkpt><trkpt lat="43.65696408426601" lon="13.284639520439327"><ele>38.0</ele><time>2026-04-10T16:58:33Z</time></trkpt><trkpt lat="43.656731397858" lon="13.284651545582545"><ele>35.0</ele><time>2026-04-10T16:58:34Z</time></trkpt><trkpt lat="43.65654156956594" lon="13.284655062977219"><ele>32.0</ele><time>2026-04-10T16:58:35Z</time></trkpt><trkpt lat="43.65636804982148" lon="13.284659448062518"><ele>29.0</ele><time>2026-04-10T16:58:36Z</time></trkpt><trkpt lat="43.65620857206856" lon="13.284664428948014"><ele>28.0</ele><time>2026-04-10T16:58:37Z</time></trkpt><trkpt lat="43.65605134575239" lon="13.284667236639512"><ele>27.0</ele><time>2026-04-10T16:58:38Z</time></trkpt><trkpt lat="43.65587976084854" lon="13.284671333993785"><ele>26.0</ele><time>2026-04-10T16:58:39Z</time></trkpt><trkpt lat="43.655717682365726" lon="13.284664016485625"><ele>26.0</ele><time>2026-04-10T16:58:40Z</time></trkpt><trkpt lat="43.65557440329697" lon="13.284663610034553"><ele>26.0</ele><time>2026-04-10T16:58:41.001Z</time></trkpt><trkpt lat="43.6554685195986" lon="13.28466351862202"><ele>26.0</ele><time>2026-04-10T16:58:42.001Z</time></trkpt><trkpt lat="43.65540136049243" lon="13.284673477219043"><ele>26.0</ele><time>2026-04-10T16:58:43.001Z</time></trkpt><trkpt lat="43.655350655383785" lon="13.284996660460518"><ele>25.75</ele><time>2026-04-10T16:58:47.001Z</time></trkpt><trkpt lat="43.65537002629868" lon="13.28516800583571"><ele>25.5</ele><time>2026-04-10T16:58:48.001Z</time></trkpt><trkpt lat="43.655391038999106" lon="13.2853572877311"><ele>25.25</ele><time>2026-04-10T16:58:49.001Z</time></trkpt><trkpt lat="43.65540883236372" lon="13.28552846354594"><ele>25.0</ele><time>2026-04-10T16:58:50.001Z</time></trkpt><trkpt lat="43.65542275873936" lon="13.285662438058027"><ele>25.0</ele><time>2026-04-10T16:58:51.001Z</time></trkpt><trkpt lat="43.65543654911456" lon="13.285795104465938"><ele>25.0</ele><time>2026-04-10T16:58:52.001Z</time></trkpt><trkpt lat="43.655464249880936" lon="13.285926471475166"><ele>25.0</ele><time>2026-04-10T16:58:53.001Z</time></trkpt><trkpt lat="43.65549877286993" lon="13.286032262892189"><ele>25.0</ele><time>2026-04-10T16:58:54.001Z</time></trkpt><trkpt lat="43.65556352499607" lon="13.286117242649961"><ele>25.0</ele><time>2026-04-10T16:58:55.001Z</time></trkpt><trkpt lat="43.655687855503885" lon="13.286159570617201"><ele>25.0</ele><time>2026-04-10T16:58:56.001Z</time></trkpt><trkpt lat="43.65580268134741" lon="13.286273776552783"><ele>25.0</ele><time>2026-04-10T16:58:57.001Z</time></trkpt><trkpt lat="43.655894005699736" lon="13.286372594421026"><ele>25.0</ele><time>2026-04-10T16:58:58.001Z</time></trkpt><trkpt lat="43.65594615859273" lon="13.286480045123588"><ele>25.0</ele><time>2026-04-10T16:58:59.001Z</time></trkpt><trkpt lat="43.655943724755936" lon="13.2866211286629"><ele>25.0</ele><time>2026-04-10T16:59:00.001Z</time></trkpt><trkpt lat="43.65594646170855" lon="13.286805985752475"><ele>25.0</ele><time>2026-04-10T16:59:01.001Z</time></trkpt><trkpt lat="43.65595124924657" lon="13.287064367222635"><ele>25.0</ele><time>2026-04-10T16:59:02.001Z</time></trkpt><trkpt lat="43.65595212806039" lon="13.287377318099969"><ele>26.5</ele><time>2026-04-10T16:59:03.001Z</time></trkpt><trkpt lat="43.65596316607333" lon="13.2877241099604"><ele>28.0</ele><time>2026-04-10T16:59:04.001Z</time></trkpt><trkpt lat="43.65597284471691" lon="13.288108098535572"><ele>32.0</ele><time>2026-04-10T16:59:05.001Z</time></trkpt><trkpt lat="43.655979190420894" lon="13.288466896978337"><ele>36.0</ele><time>2026-04-10T16:59:06.001Z</time></trkpt><trkpt lat="43.65599596980881" lon="13.28874749742539"><ele>39.333333333333336</ele><time>2026-04-10T16:59:07.001Z</time></trkpt><trkpt lat="43.65602643761466" lon="13.288988534998419"><ele>42.66666666666667</ele><time>2026-04-10T16:59:08.001Z</time></trkpt><trkpt lat="43.65605854310627" lon="13.289220667284791"><ele>46.0</ele><time>2026-04-10T16:59:09.001Z</time></trkpt><trkpt lat="43.65607945224294" lon="13.289413583760004"><ele>46.0</ele><time>2026-04-10T16:59:10.001Z</time></trkpt><trkpt lat="43.65608958727713" lon="13.289578390722612"><ele>46.0</ele><time>2026-04-10T16:59:11.001Z</time></trkpt><trkpt lat="43.65607714319706" lon="13.289711695992514"><ele>46.0</ele><time>2026-04-10T16:59:12.001Z</time></trkpt><trkpt lat="43.656045583023534" lon="13.28982223777826"><ele>46.0</ele><time>2026-04-10T16:59:13.001Z</time></trkpt><trkpt lat="43.656001092769785" lon="13.28990434611172"><ele>46.0</ele><time>2026-04-10T16:59:14.001Z</time></trkpt><trkpt lat="43.65595140138477" lon="13.289993117112257"><ele>47.0</ele><time>2026-04-10T16:59:15.001Z</time></trkpt><trkpt lat="43.655897060384284" lon="13.290083582912798"><ele>48.0</ele><time>2026-04-10T16:59:16.001Z</time></trkpt><trkpt lat="43.65584428060549" lon="13.290186704515634"><ele>49.0</ele><time>2026-04-10T16:59:17.001Z</time></trkpt><trkpt lat="43.65582142665268" lon="13.290287759106782"><ele>50.0</ele><time>2026-04-10T16:59:18.001Z</time></trkpt><trkpt lat="43.65580348349511" lon="13.290392782181064"><ele>50.99999999999999</ele><time>2026-04-10T16:59:19.001Z</time></trkpt><trkpt lat="43.65580631429444" lon="13.290510072089893"><ele>52.0</ele><time>2026-04-10T16:59:20.001Z</time></trkpt><trkpt lat="43.65587522992689" lon="13.290624791458674"><ele>52.6</ele><time>2026-04-10T16:59:21.001Z</time></trkpt><trkpt lat="43.656000046314006" lon="13.290719566043249"><ele>53.2</ele><time>2026-04-10T16:59:22.001Z</time></trkpt><trkpt lat="43.65611008312179" lon="13.2908189799845"><ele>53.8</ele><time>2026-04-10T16:59:23.001Z</time></trkpt><trkpt lat="43.6561760239377" lon="13.290910392916834"><ele>54.4</ele><time>2026-04-10T16:59:24.001Z</time></trkpt><trkpt lat="43.65621729194429" lon="13.29099093677787"><ele>55.0</ele><time>2026-04-10T16:59:25.001Z</time></trkpt><trkpt lat="43.656196849195446" lon="13.291195149370816"><ele>55.6</ele><time>2026-04-10T16:59:27.001Z</time></trkpt><trkpt lat="43.656153996676785" lon="13.291349940539748"><ele>56.2</ele><time>2026-04-10T16:59:28.001Z</time></trkpt><trkpt lat="43.65613916151462" lon="13.29146481514185"><ele>56.8</ele><time>2026-04-10T16:59:29.001Z</time></trkpt><trkpt lat="43.656191480289735" lon="13.291582546860802"><ele>57.4</ele><time>2026-04-10T16:59:30.001Z</time></trkpt><trkpt lat="43.656290916216314" lon="13.29166537486195"><ele>58.0</ele><time>2026-04-10T16:59:31.001Z</time></trkpt><trkpt lat="43.65640435339378" lon="13.291750321732053"><ele>58.75</ele><time>2026-04-10T16:59:32.001Z</time></trkpt><trkpt lat="43.656544218229016" lon="13.291824334285183"><ele>59.5</ele><time>2026-04-10T16:59:33.002Z</time></trkpt><trkpt lat="43.65668311689641" lon="13.291863518869354"><ele>60.25</ele><time>2026-04-10T16:59:34.002Z</time></trkpt><trkpt lat="43.65677702647035" lon="13.291905164781031"><ele>61.0</ele><time>2026-04-10T16:59:35.002Z</time></trkpt><trkpt lat="43.656881314284625" lon="13.291969987825121"><ele>60.33333333333333</ele><time>2026-04-10T16:59:36.002Z</time></trkpt><trkpt lat="43.656992642355775" lon="13.29210991721898"><ele>59.66666666666667</ele><time>2026-04-10T16:59:37.002Z</time></trkpt><trkpt lat="43.65713032521442" lon="13.29227580356548"><ele>59.0</ele><time>2026-04-10T16:59:38.002Z</time></trkpt><trkpt lat="43.65728633689408" lon="13.292453364752278"><ele>61.333333333333336</ele><time>2026-04-10T16:59:39.002Z</time></trkpt><trkpt lat="43.65744466523518" lon="13.292620252243074"><ele>63.66666666666667</ele><time>2026-04-10T16:59:40.002Z</time></trkpt><trkpt lat="43.657574050793485" lon="13.292759743617577"><ele>66.0</ele><time>2026-04-10T16:59:41.002Z</time></trkpt><trkpt lat="43.65768267183874" lon="13.292885569423559"><ele>66.0</ele><time>2026-04-10T16:59:42.002Z</time></trkpt><trkpt lat="43.65778228161638" lon="13.293007953358682"><ele>66.0</ele><time>2026-04-10T16:59:43.002Z</time></trkpt><trkpt lat="43.65787682090478" lon="13.293134556288042"><ele>66.0</ele><time>2026-04-10T16:59:44.002Z</time></trkpt><trkpt lat="43.65798091814226" lon="13.293290295472111"><ele>66.0</ele><time>2026-04-10T16:59:45.002Z</time></trkpt><trkpt lat="43.65809237823332" lon="13.29349385641675"><ele>66.0</ele><time>2026-04-10T16:59:46.002Z</time></trkpt><trkpt lat="43.658200432622564" lon="13.293709042276976"><ele>66.0</ele><time>2026-04-10T16:59:47.002Z</time></trkpt><trkpt lat="43.65829034280099" lon="13.293890953663317"><ele>66.0</ele><time>2026-04-10T16:59:48.002Z</time></trkpt><trkpt lat="43.658372534654454" lon="13.294065818834449"><ele>66.39999999999999</ele><time>2026-04-10T16:59:49.002Z</time></trkpt><trkpt lat="43.65844400657062" lon="13.294226250095306"><ele>66.8</ele><time>2026-04-10T16:59:50.002Z</time></trkpt><trkpt lat="43.65850395674508" lon="13.2943710641176"><ele>67.19999999999999</ele><time>2026-04-10T16:59:51.002Z</time></trkpt><trkpt lat="43.65855086612257" lon="13.294488446141571"><ele>67.6</ele><time>2026-04-10T16:59:52.002Z</time></trkpt><trkpt lat="43.658593652686214" lon="13.294595511126511"><ele>68.0</ele><time>2026-04-10T16:59:53.002Z</time></trkpt><trkpt lat="43.65864424798596" lon="13.294722116045962"><ele>69.0</ele><time>2026-04-10T16:59:54.002Z</time></trkpt><trkpt lat="43.658712513057765" lon="13.294890399486818"><ele>70.0</ele><time>2026-04-10T16:59:55Z</time></trkpt><trkpt lat="43.65880592303976" lon="13.29511703456499"><ele>71.0</ele><time>2026-04-10T16:59:56Z</time></trkpt><trkpt lat="43.65888560217411" lon="13.295304810776333"><ele>71.0</ele><time>2026-04-10T16:59:57Z</time></trkpt><trkpt lat="43.65895563664853" lon="13.295470739974592"><ele>71.0</ele><time>2026-04-10T16:59:58Z</time></trkpt><trkpt lat="43.659030070672515" lon="13.295651145078638"><ele>71.0</ele><time>2026-04-10T16:59:59Z</time></trkpt><trkpt lat="43.659106386103886" lon="13.295838761315203"><ele>71.0</ele><time>2026-04-10T17:00:00Z</time></trkpt><trkpt lat="43.659180028550544" lon="13.296038068049343"><ele>71.0</ele><time>2026-04-10T17:00:01Z</time></trkpt><trkpt lat="43.65924645310344" lon="13.29621967757965"><ele>71.0</ele><time>2026-04-10T17:00:02Z</time></trkpt><trkpt lat="43.65930469336612" lon="13.296378205174662"><ele>71.0</ele><time>2026-04-10T17:00:03Z</time></trkpt><trkpt lat="43.65936294403236" lon="13.296525234356023"><ele>71.0</ele><time>2026-04-10T17:00:04Z</time></trkpt><trkpt lat="43.65943263323081" lon="13.296673835096389"><ele>70.33333333333334</ele><time>2026-04-10T17:00:05Z</time></trkpt><trkpt lat="43.65953452211674" lon="13.296831274046042"><ele>69.66666666666667</ele><time>2026-04-10T17:00:06Z</time></trkpt><trkpt lat="43.659683895464184" lon="13.296970197428053"><ele>69.0</ele><time>2026-04-10T17:00:07Z</time></trkpt><trkpt lat="43.65983365698458" lon="13.297109376667871"><ele>68.25</ele><time>2026-04-10T17:00:08Z</time></trkpt><trkpt lat="43.65996759513326" lon="13.29726275051772"><ele>67.5</ele><time>2026-04-10T17:00:09Z</time></trkpt><trkpt lat="43.660070560793024" lon="13.297388246296647"><ele>66.75</ele><time>2026-04-10T17:00:10Z</time></trkpt><trkpt lat="43.66015342696119" lon="13.297513368507962"><ele>66.0</ele><time>2026-04-10T17:00:11Z</time></trkpt><trkpt lat="43.66022182002728" lon="13.29761966199251"><ele>66.5</ele><time>2026-04-10T17:00:12Z</time></trkpt><trkpt lat="43.66028416845692" lon="13.297708325066814"><ele>67.0</ele><time>2026-04-10T17:00:13Z</time></trkpt><trkpt lat="43.660335385753584" lon="13.29777371338508"><ele>67.5</ele><time>2026-04-10T17:00:14Z</time></trkpt><trkpt lat="43.660390055734055" lon="13.29783770469882"><ele>68.0</ele><time>2026-04-10T17:00:15Z</time></trkpt><trkpt lat="43.66044144007674" lon="13.297895952723039"><ele>68.5</ele><time>2026-04-10T17:00:16Z</time></trkpt><trkpt lat="43.66050664158138" lon="13.29796068268028"><ele>69.0</ele><time>2026-04-10T17:00:17Z</time></trkpt><trkpt lat="43.66060433483163" lon="13.29806089524602"><ele>68.5</ele><time>2026-04-10T17:00:18Z</time></trkpt><trkpt lat="43.66071062466715" lon="13.29818303552669"><ele>68.0</ele><time>2026-04-10T17:00:19Z</time></trkpt><trkpt lat="43.66081433574149" lon="13.2983037608943"><ele>67.5</ele><time>2026-04-10T17:00:20Z</time></trkpt><trkpt lat="43.66090584214473" lon="13.298405806107551"><ele>67.0</ele><time>2026-04-10T17:00:21Z</time></trkpt><trkpt lat="43.66101956866556" lon="13.298495147816423"><ele>68.0</ele><time>2026-04-10T17:00:22Z</time></trkpt><trkpt lat="43.66115171800341" lon="13.298592539887059"><ele>69.0</ele><time>2026-04-10T17:00:23Z</time></trkpt><trkpt lat="43.66132401823961" lon="13.298683875522908"><ele>70.0</ele><time>2026-04-10T17:00:24Z</time></trkpt><trkpt lat="43.66151939467551" lon="13.298769651808769"><ele>70.0</ele><time>2026-04-10T17:00:25Z</time></trkpt><trkpt lat="43.66167693642207" lon="13.29887086542479"><ele>70.0</ele><time>2026-04-10T17:00:26Z</time></trkpt><trkpt lat="43.66181002176919" lon="13.298940961841547"><ele>70.0</ele><time>2026-04-10T17:00:27Z</time></trkpt><trkpt lat="43.66193356175225" lon="13.29902157177236"><ele>70.75</ele><time>2026-04-10T17:00:28Z</time></trkpt><trkpt lat="43.66204288987457" lon="13.299109335887108"><ele>71.5</ele><time>2026-04-10T17:00:29Z</time></trkpt><trkpt lat="43.66214089715711" lon="13.299200646388547"><ele>72.25</ele><time>2026-04-10T17:00:30Z</time></trkpt><trkpt lat="43.66223799430887" lon="13.29929739815101"><ele>73.0</ele><time>2026-04-10T17:00:31Z</time></trkpt><trkpt lat="43.66234206200187" lon="13.299366982064996"><ele>73.0</ele><time>2026-04-10T17:00:32.001Z</time></trkpt><trkpt lat="43.66243284279882" lon="13.299449380047314"><ele>73.0</ele><time>2026-04-10T17:00:33.001Z</time></trkpt><trkpt lat="43.66252745956006" lon="13.299537424385377"><ele>73.0</ele><time>2026-04-10T17:00:34.001Z</time></trkpt><trkpt lat="43.66263178075755" lon="13.299604282080987"><ele>73.0</ele><time>2026-04-10T17:00:35.001Z</time></trkpt><trkpt lat="43.66271253950231" lon="13.299661198064706"><ele>73.0</ele><time>2026-04-10T17:00:36.001Z</time></trkpt><trkpt lat="43.66277092959083" lon="13.29970578284939"><ele>72.4</ele><time>2026-04-10T17:00:37.001Z</time></trkpt><trkpt lat="43.662823746488215" lon="13.299765801996335"><ele>71.8</ele><time>2026-04-10T17:00:39.001Z</time></trkpt><trkpt lat="43.66277460575358" lon="13.299906786266355"><ele>71.2</ele><time>2026-04-10T17:00:42.001Z</time></trkpt><trkpt lat="43.662706168998646" lon="13.300067600328868"><ele>70.6</ele><time>2026-04-10T17:00:44.001Z</time></trkpt><trkpt lat="43.66265379668595" lon="13.300190885442431"><ele>70.0</ele><time>2026-04-10T17:00:45.001Z</time></trkpt><trkpt lat="43.66260494457509" lon="13.300349736855466"><ele>70.0</ele><time>2026-04-10T17:00:46.001Z</time></trkpt><trkpt lat="43.66254081419163" lon="13.300498203681741"><ele>70.0</ele><time>2026-04-10T17:00:47.001Z</time></trkpt><trkpt lat="43.66249024831592" lon="13.300620179905444"><ele>70.0</ele><time>2026-04-10T17:00:48.001Z</time></trkpt><trkpt lat="43.66243953758504" lon="13.30072726322528"><ele>70.0</ele><time>2026-04-10T17:00:49.001Z</time></trkpt><trkpt lat="43.662396569220576" lon="13.300839797787463"><ele>70.0</ele><time>2026-04-10T17:00:50.001Z</time></trkpt><trkpt lat="43.66233826930508" lon="13.300977432438511"><ele>68.33333333333333</ele><time>2026-04-10T17:00:51.001Z</time></trkpt><trkpt lat="43.66226145980671" lon="13.301159042894309"><ele>66.66666666666667</ele><time>2026-04-10T17:00:52.001Z</time></trkpt><trkpt lat="43.66217641476539" lon="13.30137253454971"><ele>65.0</ele><time>2026-04-10T17:00:53.001Z</time></trkpt><trkpt lat="43.66207925749379" lon="13.301618476274802"><ele>63.333333333333336</ele><time>2026-04-10T17:00:54.001Z</time></trkpt><trkpt lat="43.66198023961504" lon="13.301859575079895"><ele>61.66666666666667</ele><time>2026-04-10T17:00:55.001Z</time></trkpt><trkpt lat="43.66187598306877" lon="13.30206323113116"><ele>60.0</ele><time>2026-04-10T17:00:56.001Z</time></trkpt><trkpt lat="43.661783106134806" lon="13.302279693087426"><ele>57.5</ele><time>2026-04-10T17:00:57.001Z</time></trkpt><trkpt lat="43.66167677204158" lon="13.302527518785261"><ele>55.0</ele><time>2026-04-10T17:00:58.001Z</time></trkpt><trkpt lat="43.661539019119125" lon="13.302813506387633"><ele>55.5</ele><time>2026-04-10T17:00:59.001Z</time></trkpt><trkpt lat="43.66139750387476" lon="13.303130928714431"><ele>56.0</ele><time>2026-04-10T17:01:00.001Z</time></trkpt><trkpt lat="43.66126724831613" lon="13.303411768382837"><ele>56.0</ele><time>2026-04-10T17:01:01.001Z</time></trkpt><trkpt lat="43.66116142092709" lon="13.303670452349895"><ele>56.0</ele><time>2026-04-10T17:01:02.001Z</time></trkpt><trkpt lat="43.661069023830805" lon="13.303891934217987"><ele>56.0</ele><time>2026-04-10T17:01:03.001Z</time></trkpt><trkpt lat="43.660978437850645" lon="13.304118590497524"><ele>56.333333333333336</ele><time>2026-04-10T17:01:04.001Z</time></trkpt><trkpt lat="43.6608701156823" lon="13.304366863445065"><ele>56.66666666666667</ele><time>2026-04-10T17:01:05.001Z</time></trkpt><trkpt lat="43.66076166346114" lon="13.304640185877776"><ele>57.0</ele><time>2026-04-10T17:01:06.001Z</time></trkpt><trkpt lat="43.66066868885305" lon="13.304878385068255"><ele>56.33333333333333</ele><time>2026-04-10T17:01:07.001Z</time></trkpt><trkpt lat="43.66058296287675" lon="13.305092507176695"><ele>55.666666666666664</ele><time>2026-04-10T17:01:08.001Z</time></trkpt><trkpt lat="43.66050925737526" lon="13.305280660627227"><ele>55.0</ele><time>2026-04-10T17:01:09.001Z</time></trkpt><trkpt lat="43.66044034548258" lon="13.305447402029358"><ele>54.666666666666664</ele><time>2026-04-10T17:01:10.001Z</time></trkpt><trkpt lat="43.66037483161254" lon="13.305605604475577"><ele>54.33333333333333</ele><time>2026-04-10T17:01:11.001Z</time></trkpt><trkpt lat="43.66030151968725" lon="13.305786350033145"><ele>54.0</ele><time>2026-04-10T17:01:12.001Z</time></trkpt><trkpt lat="43.660215918795025" lon="13.306007539001742"><ele>54.0</ele><time>2026-04-10T17:01:13.001Z</time></trkpt><trkpt lat="43.66011836642181" lon="13.306249302311919"><ele>54.0</ele><time>2026-04-10T17:01:14.001Z</time></trkpt><trkpt lat="43.66001504951434" lon="13.306512699756052"><ele>54.0</ele><time>2026-04-10T17:01:15.001Z</time></trkpt><trkpt lat="43.65989483012048" lon="13.306800031505238"><ele>53.66666666666667</ele><time>2026-04-10T17:01:16.001Z</time></trkpt><trkpt lat="43.65978980635404" lon="13.307051108410562"><ele>53.333333333333336</ele><time>2026-04-10T17:01:17.001Z</time></trkpt><trkpt lat="43.659693561013086" lon="13.307297721647291"><ele>53.0</ele><time>2026-04-10T17:01:18.001Z</time></trkpt><trkpt lat="43.65961550904171" lon="13.307496788662704"><ele>52.25</ele><time>2026-04-10T17:01:19.001Z</time></trkpt><trkpt lat="43.659540460454785" lon="13.307677856236156"><ele>51.5</ele><time>2026-04-10T17:01:20.001Z</time></trkpt><trkpt lat="43.659475826787244" lon="13.307835353826011"><ele>50.75</ele><time>2026-04-10T17:01:21.001Z</time></trkpt><trkpt lat="43.65942522107697" lon="13.30796477756855"><ele>50.0</ele><time>2026-04-10T17:01:22.001Z</time></trkpt><trkpt lat="43.65939386714151" lon="13.308049430419304"><ele>49.0</ele><time>2026-04-10T17:01:23.001Z</time></trkpt><trkpt lat="43.659350534642364" lon="13.308145204518606"><ele>48.0</ele><time>2026-04-10T17:01:25.002Z</time></trkpt><trkpt lat="43.65932984676012" lon="13.308241961553763"><ele>47.0</ele><time>2026-04-10T17:01:30.002Z</time></trkpt><trkpt lat="43.65953505801157" lon="13.308334482902614"><ele>46.0</ele><time>2026-04-10T17:01:32.002Z</time></trkpt><trkpt lat="43.659686614573545" lon="13.308368001212726"><ele>46.0</ele><time>2026-04-10T17:01:33.002Z</time></trkpt><trkpt lat="43.659849539472724" lon="13.308416824988466"><ele>46.0</ele><time>2026-04-10T17:01:34.002Z</time></trkpt><trkpt lat="43.66002514988071" lon="13.308466846944452"><ele>46.0</ele><time>2026-04-10T17:01:35.002Z</time></trkpt><trkpt lat="43.66022418058185" lon="13.308521584218827"><ele>42.0</ele><time>2026-04-10T17:01:36.002Z</time></trkpt><trkpt lat="43.66043572527596" lon="13.308579694952948"><ele>38.0</ele><time>2026-04-10T17:01:37.002Z</time></trkpt><trkpt lat="43.66065466265082" lon="13.308641444979664"><ele>34.0</ele><time>2026-04-10T17:01:38.002Z</time></trkpt><trkpt lat="43.66090104743381" lon="13.308709682918533"><ele>29.5</ele><time>2026-04-10T17:01:39.002Z</time></trkpt><trkpt lat="43.661160589156395" lon="13.30878823759192"><ele>25.0</ele><time>2026-04-10T17:01:40.002Z</time></trkpt><trkpt lat="43.66146240215581" lon="13.308882766121437"><ele>25.0</ele><time>2026-04-10T17:01:41.002Z</time></trkpt><trkpt lat="43.66174794221929" lon="13.308971387371553"><ele>25.0</ele><time>2026-04-10T17:01:42.002Z</time></trkpt><trkpt lat="43.66200457064229" lon="13.309047141654585"><ele>22.0</ele><time>2026-04-10T17:01:43.002Z</time></trkpt><trkpt lat="43.66227100302605" lon="13.309127451987548"><ele>19.0</ele><time>2026-04-10T17:01:44.002Z</time></trkpt><trkpt lat="43.66254408951241" lon="13.309208895189236"><ele>16.5</ele><time>2026-04-10T17:01:45.002Z</time></trkpt><trkpt lat="43.66282410901141" lon="13.30928906868851"><ele>14.0</ele><time>2026-04-10T17:01:46.002Z</time></trkpt><trkpt lat="43.66307405403334" lon="13.30936232217676"><ele>14.0</ele><time>2026-04-10T17:01:47.002Z</time></trkpt><trkpt lat="43.66333514039769" lon="13.309440366243509"><ele>14.0</ele><time>2026-04-10T17:01:48.002Z</time></trkpt><trkpt lat="43.66360371512331" lon="13.309528280198094"><ele>11.0</ele><time>2026-04-10T17:01:49.002Z</time></trkpt><trkpt lat="43.663866871240536" lon="13.30961414564457"><ele>8.0</ele><time>2026-04-10T17:01:50.002Z</time></trkpt><trkpt lat="43.66411608197662" lon="13.309688350685095"><ele>7.5</ele><time>2026-04-10T17:01:51.002Z</time></trkpt><trkpt lat="43.6643498909957" lon="13.309756342107653"><ele>7.0</ele><time>2026-04-10T17:01:52.002Z</time></trkpt><trkpt lat="43.66456729131968" lon="13.309826606234111"><ele>5.666666666666667</ele><time>2026-04-10T17:01:53.002Z</time></trkpt><trkpt lat="43.66477230032032" lon="13.309891800040518"><ele>4.333333333333334</ele><time>2026-04-10T17:01:54.002Z</time></trkpt><trkpt lat="43.664963617999774" lon="13.309951519107342"><ele>3.0</ele><time>2026-04-10T17:01:55.002Z</time></trkpt><trkpt lat="43.665143721835335" lon="13.31001082284122"><ele>2.75</ele><time>2026-04-10T17:01:56.002Z</time></trkpt><trkpt lat="43.66531024453861" lon="13.310066556032343"><ele>2.5</ele><time>2026-04-10T17:01:57.002Z</time></trkpt><trkpt lat="43.665458934571674" lon="13.310114698311093"><ele>2.25</ele><time>2026-04-10T17:01:58.002Z</time></trkpt><trkpt lat="43.66557834649947" lon="13.31015943444515"><ele>2.0</ele><time>2026-04-10T17:01:59.002Z</time></trkpt><trkpt lat="43.665682736064575" lon="13.31022132890556"><ele>1.9999999999999998</ele><time>2026-04-10T17:02:00.002Z</time></trkpt><trkpt lat="43.66575826367202" lon="13.310307502237348"><ele>2.0</ele><time>2026-04-10T17:02:01Z</time></trkpt><trkpt lat="43.665822929400925" lon="13.310366553530695"><ele>2.0</ele><time>2026-04-10T17:02:02Z</time></trkpt><trkpt lat="43.665898031542014" lon="13.310443225361077"><ele>2.0</ele><time>2026-04-10T17:02:04Z</time></trkpt><trkpt lat="43.665939277528736" lon="13.310515509833603"><ele>1.9999999999999998</ele><time>2026-04-10T17:02:06Z</time></trkpt><trkpt lat="43.66601350055547" lon="13.31051685845094"><ele>2.0</ele><time>2026-04-10T17:02:10Z</time></trkpt><trkpt lat="43.66612717853164" lon="13.310379310310841"><ele>1.6</ele><time>2026-04-10T17:02:13Z</time></trkpt><trkpt lat="43.66616672554116" lon="13.310284066977768"><ele>1.2000000000000002</ele><time>2026-04-10T17:02:14Z</time></trkpt><trkpt lat="43.66622942184525" lon="13.310159535337945"><ele>0.8</ele><time>2026-04-10T17:02:15Z</time></trkpt><trkpt lat="43.6662889808435" lon="13.310041835067539"><ele>0.4</ele><time>2026-04-10T17:02:16Z</time></trkpt><trkpt lat="43.66635265404595" lon="13.309901407057488"><ele>0.0</ele><time>2026-04-10T17:02:17Z</time></trkpt><trkpt lat="43.66642298456738" lon="13.309747187662738"><ele>0.25</ele><time>2026-04-10T17:02:18Z</time></trkpt><trkpt lat="43.666497763966156" lon="13.309591141412819"><ele>0.5</ele><time>2026-04-10T17:02:19Z</time></trkpt><trkpt lat="43.66657827597248" lon="13.309423662240082"><ele>0.75</ele><time>2026-04-10T17:02:20Z</time></trkpt><trkpt lat="43.66666384521282" lon="13.309244512172619"><ele>1.0</ele><time>2026-04-10T17:02:21Z</time></trkpt><trkpt lat="43.6667497973277" lon="13.309062228742654"><ele>1.0</ele><time>2026-04-10T17:02:22Z</time></trkpt><trkpt lat="43.66684520042343" lon="13.308848443284802"><ele>1.0</ele><time>2026-04-10T17:02:23Z</time></trkpt><trkpt lat="43.666956234749854" lon="13.30860998872136"><ele>1.0</ele><time>2026-04-10T17:02:24Z</time></trkpt><trkpt lat="43.66707502212269" lon="13.308359797242206"><ele>1.0</ele><time>2026-04-10T17:02:25Z</time></trkpt><trkpt lat="43.66719578050739" lon="13.308104323254051"><ele>1.0</ele><time>2026-04-10T17:02:26Z</time></trkpt><trkpt lat="43.667317891837904" lon="13.307843083998288"><ele>1.0</ele><time>2026-04-10T17:02:27Z</time></trkpt><trkpt lat="43.667439981647775" lon="13.307583242068443"><ele>1.0</ele><time>2026-04-10T17:02:28Z</time></trkpt><trkpt lat="43.66756295151491" lon="13.307331453211223"><ele>1.0</ele><time>2026-04-10T17:02:29Z</time></trkpt><trkpt lat="43.6676746550846" lon="13.307102069045165"><ele>1.0</ele><time>2026-04-10T17:02:30Z</time></trkpt><trkpt lat="43.66777736228994" lon="13.30689989586499"><ele>1.0</ele><time>2026-04-10T17:02:31Z</time></trkpt><trkpt lat="43.66786761285943" lon="13.306709746024753"><ele>1.0</ele><time>2026-04-10T17:02:32.001Z</time></trkpt><trkpt lat="43.66794953806501" lon="13.306531283102016"><ele>1.0</ele><time>2026-04-10T17:02:33.001Z</time></trkpt><trkpt lat="43.66802520992553" lon="13.306360512972978"><ele>1.0</ele><time>2026-04-10T17:02:34.001Z</time></trkpt><trkpt lat="43.668105709940214" lon="13.306187357290607"><ele>1.0</ele><time>2026-04-10T17:02:35.001Z</time></trkpt><trkpt lat="43.6681900035678" lon="13.306004253601005"><ele>1.0</ele><time>2026-04-10T17:02:36.001Z</time></trkpt><trkpt lat="43.66828224775715" lon="13.305797903451689"><ele>1.0</ele><time>2026-04-10T17:02:37.001Z</time></trkpt><trkpt lat="43.66838463034732" lon="13.305573009411951"><ele>1.0</ele><time>2026-04-10T17:02:38.001Z</time></trkpt><trkpt lat="43.66849722317307" lon="13.305318971477842"><ele>1.0</ele><time>2026-04-10T17:02:39.001Z</time></trkpt><trkpt lat="43.668640125665675" lon="13.305006028822795"><ele>1.5</ele><time>2026-04-10T17:02:40.001Z</time></trkpt><trkpt lat="43.668811684089334" lon="13.304669166718108"><ele>2.0</ele><time>2026-04-10T17:02:41.001Z</time></trkpt><trkpt lat="43.66898031214559" lon="13.304344296207477"><ele>2.0</ele><time>2026-04-10T17:02:42.001Z</time></trkpt><trkpt lat="43.66914785804278" lon="13.30399880345502"><ele>2.0</ele><time>2026-04-10T17:02:43.001Z</time></trkpt><trkpt lat="43.669303755149414" lon="13.303670059050999"><ele>0.5</ele><time>2026-04-10T17:02:44.001Z</time></trkpt><trkpt lat="43.669443080714366" lon="13.303369132597926"><ele>-1.0</ele><time>2026-04-10T17:02:45.001Z</time></trkpt><trkpt lat="43.66957372085593" lon="13.30308501744829"><ele>-0.6666666666666666</ele><time>2026-04-10T17:02:46.001Z</time></trkpt><trkpt lat="43.669694138852684" lon="13.30282765268686"><ele>-0.3333333333333333</ele><time>2026-04-10T17:02:47.001Z</time></trkpt><trkpt lat="43.669807569815276" lon="13.30258927433786"><ele>0.0</ele><time>2026-04-10T17:02:48.001Z</time></trkpt><trkpt lat="43.66991482693338" lon="13.302359519678653"><ele>0.6666666666666666</ele><time>2026-04-10T17:02:49.001Z</time></trkpt><trkpt lat="43.670023058742686" lon="13.302124772333714"><ele>1.3333333333333333</ele><time>2026-04-10T17:02:50.001Z</time></trkpt><trkpt lat="43.6701329252003" lon="13.301888956615695"><ele>2.0</ele><time>2026-04-10T17:02:51.001Z</time></trkpt><trkpt lat="43.67024344949677" lon="13.301653889430472"><ele>2.0</ele><time>2026-04-10T17:02:52.001Z</time></trkpt><trkpt lat="43.670352560530056" lon="13.301418104005378"><ele>2.0</ele><time>2026-04-10T17:02:53.001Z</time></trkpt><trkpt lat="43.670459720494314" lon="13.301182673707357"><ele>2.0</ele><time>2026-04-10T17:02:54.001Z</time></trkpt><trkpt lat="43.67056466543132" lon="13.300955976180632"><ele>1.6666666666666665</ele><time>2026-04-10T17:02:55.001Z</time></trkpt><trkpt lat="43.67066903698326" lon="13.300737666815824"><ele>1.3333333333333333</ele><time>2026-04-10T17:02:56.001Z</time></trkpt><trkpt lat="43.670768391307654" lon="13.300526443389979"><ele>1.0</ele><time>2026-04-10T17:02:57.001Z</time></trkpt><trkpt lat="43.67085555961972" lon="13.300331859796445"><ele>1.0</ele><time>2026-04-10T17:02:58.001Z</time></trkpt><trkpt lat="43.67093567315914" lon="13.300149860789439"><ele>1.0</ele><time>2026-04-10T17:02:59.001Z</time></trkpt><trkpt lat="43.671014811876056" lon="13.299982004623308"><ele>1.0</ele><time>2026-04-10T17:03:00.001Z</time></trkpt><trkpt lat="43.671085280432685" lon="13.299846081850744"><ele>1.0</ele><time>2026-04-10T17:03:01.001Z</time></trkpt><trkpt lat="43.671142240908615" lon="13.299727680778302"><ele>1.0</ele><time>2026-04-10T17:03:02.001Z</time></trkpt><trkpt lat="43.671171468890606" lon="13.299632344753734"><ele>1.0</ele><time>2026-04-10T17:03:03.001Z</time></trkpt><trkpt lat="43.67109469420105" lon="13.299500144633367"><ele>1.0</ele><time>2026-04-10T17:03:05.001Z</time></trkpt><trkpt lat="43.671001978365766" lon="13.299450278172657"><ele>1.0</ele><time>2026-04-10T17:03:06.001Z</time></trkpt><trkpt lat="43.670895318711054" lon="13.299371465396788"><ele>1.0</ele><time>2026-04-10T17:03:07.001Z</time></trkpt><trkpt lat="43.67080655936778" lon="13.299297080049358"><ele>1.1666666666666665</ele><time>2026-04-10T17:03:08.001Z</time></trkpt><trkpt lat="43.67074087753164" lon="13.299243600931918"><ele>1.3333333333333333</ele><time>2026-04-10T17:03:09.001Z</time></trkpt><trkpt lat="43.67067975079855" lon="13.299196749212015"><ele>1.5</ele><time>2026-04-10T17:03:10.001Z</time></trkpt><trkpt lat="43.67060549831713" lon="13.299163968812744"><ele>1.6666666666666665</ele><time>2026-04-10T17:03:12.001Z</time></trkpt><trkpt lat="43.670585307372775" lon="13.299279396748691"><ele>1.8333333333333333</ele><time>2026-04-10T17:03:14.001Z</time></trkpt><trkpt lat="43.670572449227265" lon="13.299391033286517"><ele>2.0</ele><time>2026-04-10T17:03:15.001Z</time></trkpt><trkpt lat="43.670612452779864" lon="13.299538053891359"><ele>2.0</ele><time>2026-04-10T17:03:16.001Z</time></trkpt><trkpt lat="43.67070564533205" lon="13.299674930974394"><ele>2.0</ele><time>2026-04-10T17:03:17.001Z</time></trkpt><trkpt lat="43.670823277591225" lon="13.299817282295098"><ele>2.0</ele><time>2026-04-10T17:03:18.001Z</time></trkpt><trkpt lat="43.670972147679855" lon="13.299950663367758"><ele>1.3333333333333333</ele><time>2026-04-10T17:03:19.001Z</time></trkpt><trkpt lat="43.67113891497556" lon="13.300122109894"><ele>0.6666666666666666</ele><time>2026-04-10T17:03:20.001Z</time></trkpt><trkpt lat="43.67128691042939" lon="13.300297053939463"><ele>0.0</ele><time>2026-04-10T17:03:21.001Z</time></trkpt><trkpt lat="43.67140514533037" lon="13.300440937988743"><ele>0.0</ele><time>2026-04-10T17:03:22.001Z</time></trkpt><trkpt lat="43.671471217729156" lon="13.300487688508476"><ele>0.0</ele><time>2026-04-10T17:03:23.001Z</time></trkpt><trkpt lat="43.67153012568774" lon="13.300525156758834"><ele>0.0</ele><time>2026-04-10T17:03:25.002Z</time></trkpt><trkpt lat="43.67167468826904" lon="13.300342076735488"><ele>0.0</ele><time>2026-04-10T17:03:29.002Z</time></trkpt><trkpt lat="43.67171816577857" lon="13.300209684785429"><ele>0.0</ele><time>2026-04-10T17:03:30.002Z</time></trkpt><trkpt lat="43.67175973537603" lon="13.30010911754608"><ele>0.0</ele><time>2026-04-10T17:03:31.002Z</time></trkpt><trkpt lat="43.67182486934589" lon="13.299975098780608"><ele>0.0</ele><time>2026-04-10T17:03:33.002Z</time></trkpt></trkseg><trkseg><trkpt lat="43.67136200600728" lon="13.299210570922432"><ele>1.0</ele><time>2026-04-10T18:18:50.001Z</time></trkpt><trkpt lat="43.67145434810523" lon="13.29901449774879"><ele>1.0</ele><time>2026-04-10T18:18:51.001Z</time></trkpt><trkpt lat="43.671518988054366" lon="13.298879816336491"><ele>1.0</ele><time>2026-04-10T18:18:52.001Z</time></trkpt><trkpt lat="43.67159421330431" lon="13.298722403128162"><ele>1.0</ele><time>2026-04-10T18:18:53.001Z</time></trkpt><trkpt lat="43.67167606290418" lon="13.298552403248422"><ele>1.25</ele><time>2026-04-10T18:18:54.001Z</time></trkpt><trkpt lat="43.67175051956643" lon="13.298399651279018"><ele>1.5</ele><time>2026-04-10T18:18:55.001Z</time></trkpt><trkpt lat="43.67182466205551" lon="13.298251060781347"><ele>1.75</ele><time>2026-04-10T18:18:56.001Z</time></trkpt><trkpt lat="43.67190713998272" lon="13.298093564820753"><ele>2.0</ele><time>2026-04-10T18:18:57.001Z</time></trkpt><trkpt lat="43.67198023017838" lon="13.297907151294218"><ele>2.0</ele><time>2026-04-10T18:18:58Z</time></trkpt><trkpt lat="43.672063420567355" lon="13.2977474760388"><ele>2.0</ele><time>2026-04-10T18:18:59.001Z</time></trkpt><trkpt lat="43.672157716978035" lon="13.297573216271863"><ele>2.0</ele><time>2026-04-10T18:19:00Z</time></trkpt><trkpt lat="43.67223658394028" lon="13.297414845629415"><ele>2.0</ele><time>2026-04-10T18:19:01Z</time></trkpt><trkpt lat="43.672306402897654" lon="13.29725879553893"><ele>2.0</ele><time>2026-04-10T18:19:02Z</time></trkpt><trkpt lat="43.672382650633494" lon="13.297112698265014"><ele>2.0</ele><time>2026-04-10T18:19:03Z</time></trkpt><trkpt lat="43.67246443647825" lon="13.29696200172928"><ele>2.0</ele><time>2026-04-10T18:19:04Z</time></trkpt><trkpt lat="43.672539894308414" lon="13.29680335143208"><ele>2.0</ele><time>2026-04-10T18:19:05Z</time></trkpt><trkpt lat="43.67261476347253" lon="13.296643306963544"><ele>2.0</ele><time>2026-04-10T18:19:06Z</time></trkpt><trkpt lat="43.672687158271806" lon="13.296482892719329"><ele>2.0</ele><time>2026-04-10T18:19:07Z</time></trkpt><trkpt lat="43.67277386154234" lon="13.29632217445631"><ele>2.0</ele><time>2026-04-10T18:19:08Z</time></trkpt><trkpt lat="43.67285974897887" lon="13.296155462866137"><ele>2.0</ele><time>2026-04-10T18:19:09Z</time></trkpt><trkpt lat="43.672943933586915" lon="13.295994972964365"><ele>1.6666666666666665</ele><time>2026-04-10T18:19:10Z</time></trkpt><trkpt lat="43.67304430386391" lon="13.295835560272097"><ele>1.3333333333333333</ele><time>2026-04-10T18:19:11Z</time></trkpt><trkpt lat="43.67312287530501" lon="13.295657744289922"><ele>1.0</ele><time>2026-04-10T18:19:12Z</time></trkpt><trkpt lat="43.673210981843866" lon="13.295492476812077"><ele>1.6666666666666665</ele><time>2026-04-10T18:19:13Z</time></trkpt><trkpt lat="43.67329349539625" lon="13.295318751504697"><ele>2.3333333333333335</ele><time>2026-04-10T18:19:14Z</time></trkpt><trkpt lat="43.673383909796804" lon="13.295135967680846"><ele>3.0</ele><time>2026-04-10T18:19:15.001Z</time></trkpt><trkpt lat="43.673457735563275" lon="13.294956448737954"><ele>3.0</ele><time>2026-04-10T18:19:16.001Z</time></trkpt><trkpt lat="43.673549995748246" lon="13.294788891451573"><ele>3.0</ele><time>2026-04-10T18:19:17.001Z</time></trkpt><trkpt lat="43.67363578434788" lon="13.294610342509692"><ele>3.0</ele><time>2026-04-10T18:19:18.001Z</time></trkpt><trkpt lat="43.673713174124885" lon="13.294422899631613"><ele>2.6666666666666665</ele><time>2026-04-10T18:19:19.001Z</time></trkpt><trkpt lat="43.67380659169486" lon="13.294243195375383"><ele>2.333333333333333</ele><time>2026-04-10T18:19:20.001Z</time></trkpt><trkpt lat="43.673898333099494" lon="13.294058710122957"><ele>2.0</ele><time>2026-04-10T18:19:21.001Z</time></trkpt><trkpt lat="43.67400074977278" lon="13.293852932298945"><ele>2.0</ele><time>2026-04-10T18:19:22.001Z</time></trkpt><trkpt lat="43.67411271986131" lon="13.293628056482934"><ele>2.0</ele><time>2026-04-10T18:19:23.001Z</time></trkpt><trkpt lat="43.67420168827891" lon="13.293409319666962"><ele>2.0</ele><time>2026-04-10T18:19:24.001Z</time></trkpt><trkpt lat="43.67431044149096" lon="13.29320777980121"><ele>2.333333333333333</ele><time>2026-04-10T18:19:25.001Z</time></trkpt><trkpt lat="43.67441350203471" lon="13.293011443574683"><ele>2.6666666666666665</ele><time>2026-04-10T18:19:26.001Z</time></trkpt><trkpt lat="43.67451260824542" lon="13.292822230797103"><ele>3.0</ele><time>2026-04-10T18:19:27.001Z</time></trkpt><trkpt lat="43.67460257018152" lon="13.292632331678211"><ele>3.0</ele><time>2026-04-10T18:19:28.001Z</time></trkpt><trkpt lat="43.6746912702574" lon="13.292450361763983"><ele>3.0</ele><time>2026-04-10T18:19:29.001Z</time></trkpt><trkpt lat="43.67478168517921" lon="13.292268986122936"><ele>3.0</ele><time>2026-04-10T18:19:30.001Z</time></trkpt><trkpt lat="43.67487004323572" lon="13.292093393282276"><ele>3.0</ele><time>2026-04-10T18:19:31.001Z</time></trkpt><trkpt lat="43.67495804637632" lon="13.291920861043526"><ele>3.0</ele><time>2026-04-10T18:19:32.001Z</time></trkpt><trkpt lat="43.67504552305904" lon="13.291749038050453"><ele>3.0</ele><time>2026-04-10T18:19:33.001Z</time></trkpt><trkpt lat="43.675120309510056" lon="13.291583954366999"><ele>3.0</ele><time>2026-04-10T18:19:34.001Z</time></trkpt><trkpt lat="43.6751993844809" lon="13.29141663753047"><ele>2.75</ele><time>2026-04-10T18:19:35.001Z</time></trkpt><trkpt lat="43.67527493693609" lon="13.291267426533512"><ele>2.5</ele><time>2026-04-10T18:19:36.001Z</time></trkpt><trkpt lat="43.6753514273329" lon="13.291115997351953"><ele>2.25</ele><time>2026-04-10T18:19:37.001Z</time></trkpt><trkpt lat="43.67542987901739" lon="13.290971661843262"><ele>2.0</ele><time>2026-04-10T18:19:38.001Z</time></trkpt><trkpt lat="43.67549936382954" lon="13.290839846893949"><ele>2.0</ele><time>2026-04-10T18:19:39.001Z</time></trkpt><trkpt lat="43.67556396974247" lon="13.290704128026963"><ele>2.0</ele><time>2026-04-10T18:19:40.001Z</time></trkpt><trkpt lat="43.67561980679607" lon="13.290579636059263"><ele>2.0</ele><time>2026-04-10T18:19:41.001Z</time></trkpt><trkpt lat="43.67568078280907" lon="13.290457201859123"><ele>2.0</ele><time>2026-04-10T18:19:42.001Z</time></trkpt><trkpt lat="43.675745811560084" lon="13.290337951356928"><ele>2.0</ele><time>2026-04-10T18:19:43.001Z</time></trkpt><trkpt lat="43.67580172283764" lon="13.290223628276582"><ele>3.0</ele><time>2026-04-10T18:19:44.001Z</time></trkpt><trkpt lat="43.675866279542355" lon="13.290102240092855"><ele>3.0</ele><time>2026-04-10T18:19:45.001Z</time></trkpt><trkpt lat="43.67592779819003" lon="13.289979098967954"><ele>3.0</ele><time>2026-04-10T18:19:46.001Z</time></trkpt></trkseg></trk></gpx>